createdAt,value
2018-07-31T00:00:16.421Z,3.12
2018-07-31T00:02:46.216Z,3.12
2018-07-31T00:05:15.714Z,3.60
2018-07-31T00:07:45.537Z,3.15
2018-07-31T00:10:21.993Z,3.52
2018-07-31T00:12:52.164Z,3.52
2018-07-31T00:15:21.656Z,3.65
2018-07-31T00:17:51.702Z,3.47
2018-07-31T00:20:21.132Z,3.72
2018-07-31T00:22:51.020Z,3.20
2018-07-31T00:25:20.428Z,3.37
2018-07-31T00:27:49.956Z,3.20
2018-07-31T00:30:19.941Z,3.10
2018-07-31T00:32:49.676Z,3.90
2018-07-31T00:35:19.123Z,3.37
2018-07-31T00:37:48.903Z,3.37
2018-07-31T00:40:18.384Z,3.65
2018-07-31T00:42:47.940Z,3.20
2018-07-31T00:45:17.699Z,3.08
2018-07-31T00:47:47.116Z,3.30
2018-07-31T00:50:16.821Z,3.83
2018-07-31T00:52:46.592Z,3.40
2018-07-31T00:55:16.593Z,3.20
2018-07-31T00:57:46.324Z,3.40
2018-07-31T01:00:16.087Z,3.50
2018-07-31T01:02:45.775Z,3.40
2018-07-31T01:05:15.864Z,3.27
2018-07-31T01:07:45.714Z,3.12
2018-07-31T01:10:15.736Z,2.95
2018-07-31T01:12:45.157Z,3.17
2018-07-31T01:15:14.628Z,3.50
2018-07-31T01:17:44.085Z,3.02
2018-07-31T01:20:13.928Z,3.25
2018-07-31T01:22:43.328Z,3.05
2018-07-31T01:25:13.048Z,3.05
2018-07-31T01:27:42.946Z,3.37
2018-07-31T01:30:12.706Z,3.70
2018-07-31T01:32:42.215Z,3.55
2018-07-31T01:35:12.216Z,3.33
2018-07-31T01:37:41.924Z,3.47
2018-07-31T01:40:11.704Z,3.62
2018-07-31T01:42:41.291Z,3.27
2018-07-31T01:45:11.346Z,3.33
2018-07-31T01:47:41.435Z,3.40
2018-07-31T01:50:11.566Z,3.00
2018-07-31T01:52:41.519Z,3.30
2018-07-31T01:55:11.801Z,3.22
2018-07-31T01:57:42.262Z,3.70
2018-07-31T02:00:12.014Z,3.50
2018-07-31T02:02:41.502Z,3.00
2018-07-31T02:05:11.635Z,3.58
2018-07-31T02:07:41.403Z,3.25
2018-07-31T02:10:11.179Z,3.40
2018-07-31T02:12:41.231Z,3.50
2018-07-31T02:15:10.635Z,3.08
2018-07-31T02:17:40.421Z,3.30
2018-07-31T02:20:10.191Z,3.20
2018-07-31T02:22:39.921Z,3.05
2018-07-31T02:25:09.896Z,3.40
2018-07-31T02:27:39.291Z,3.60
2018-07-31T02:30:09.660Z,3.40
2018-07-31T02:32:39.420Z,3.20
2018-07-31T02:35:08.918Z,3.12
2018-07-31T02:37:38.692Z,3.58
2018-07-31T02:40:08.822Z,3.65
2018-07-31T02:42:39.802Z,3.62
2018-07-31T02:45:12.557Z,3.50
2018-07-31T02:47:42.945Z,3.58
2018-07-31T02:50:13.139Z,3.37
2018-07-31T02:52:42.580Z,3.58
2018-07-31T02:55:12.710Z,3.10
2018-07-31T02:57:43.336Z,3.22
2018-07-31T03:00:12.767Z,3.17
2018-07-31T03:02:42.474Z,3.37
2018-07-31T03:05:12.969Z,3.37
2018-07-31T03:07:42.336Z,3.62
2018-07-31T03:10:12.442Z,3.75
2018-07-31T03:12:42.471Z,3.20
2018-07-31T03:15:12.586Z,3.65
2018-07-31T03:17:42.597Z,3.72
2018-07-31T03:20:12.049Z,3.27
2018-07-31T03:22:41.823Z,3.17
2018-07-31T03:25:12.064Z,3.52
2018-07-31T03:27:42.023Z,3.37
2018-07-31T03:30:11.730Z,3.37
2018-07-31T03:32:41.435Z,3.52
2018-07-31T03:35:11.236Z,3.30
2018-07-31T03:37:40.977Z,3.55
2018-07-31T03:40:10.396Z,3.80
2018-07-31T03:42:39.768Z,3.00
2018-07-31T03:45:09.868Z,4.15
2018-07-31T03:47:39.504Z,3.35
2018-07-31T03:50:09.299Z,3.40
2018-07-31T03:52:39.029Z,3.42
2018-07-31T03:55:08.459Z,3.90
2018-07-31T03:57:37.899Z,3.30
2018-07-31T04:00:08.119Z,3.80
2018-07-31T04:02:37.605Z,3.85
2018-07-31T04:05:07.410Z,3.45
2018-07-31T04:07:37.123Z,2.90
2018-07-31T04:10:06.745Z,3.65
2018-07-31T04:12:36.851Z,3.50
2018-07-31T04:15:06.732Z,3.58
2018-07-31T04:17:36.435Z,3.80
2018-07-31T04:20:06.665Z,4.00
2018-07-31T04:22:36.397Z,3.40
2018-07-31T04:25:05.806Z,3.37
2018-07-31T04:27:35.526Z,3.35
2018-07-31T04:30:06.197Z,3.47
2018-07-31T04:32:36.535Z,3.75
2018-07-31T04:35:06.288Z,3.70
2018-07-31T04:37:36.366Z,3.40
2018-07-31T04:40:06.906Z,3.90
2018-07-31T04:42:36.706Z,3.80
2018-07-31T04:45:08.299Z,3.90
2018-07-31T04:47:38.289Z,3.70
2018-07-31T04:50:08.520Z,3.83
2018-07-31T04:52:38.627Z,3.62
2018-07-31T04:55:08.092Z,3.95
2018-07-31T04:57:38.018Z,3.95
2018-07-31T05:00:09.455Z,4.12
2018-07-31T05:02:39.530Z,4.22
2018-07-31T05:05:09.317Z,3.87
2018-07-31T05:07:40.082Z,3.80
2018-07-31T05:10:12.436Z,3.45
2018-07-31T05:12:43.206Z,4.15
2018-07-31T05:15:12.733Z,3.62
2018-07-31T05:17:42.897Z,3.70
2018-07-31T05:20:12.655Z,4.30
2018-07-31T05:22:42.968Z,3.92
2018-07-31T05:25:12.773Z,3.60
2018-07-31T05:27:42.821Z,3.83
2018-07-31T05:30:12.241Z,4.00
2018-07-31T05:32:42.083Z,3.95
2018-07-31T05:35:12.688Z,4.08
2018-07-31T05:37:42.691Z,3.75
2018-07-31T05:40:12.911Z,4.05
2018-07-31T05:42:43.299Z,4.00
2018-07-31T05:45:13.688Z,3.60
2018-07-31T05:47:43.489Z,3.60
2018-07-31T05:50:13.485Z,4.37
2018-07-31T05:52:43.544Z,4.35
2018-07-31T05:55:13.341Z,4.12
2018-07-31T05:57:43.475Z,4.15
2018-07-31T06:00:12.998Z,3.65
2018-07-31T06:02:42.802Z,3.70
2018-07-31T06:05:12.791Z,4.00
2018-07-31T06:07:42.860Z,3.95
2018-07-31T06:10:12.749Z,3.58
2018-07-31T06:12:42.489Z,3.67
2018-07-31T06:15:12.225Z,3.77
2018-07-31T06:17:41.758Z,3.70
2018-07-31T06:20:16.286Z,3.75
2018-07-31T06:22:47.905Z,3.20
2018-07-31T06:25:18.013Z,3.62
2018-07-31T06:27:47.883Z,3.20
2018-07-31T06:30:17.729Z,3.47
2018-07-31T06:32:47.222Z,3.40
2018-07-31T06:35:16.606Z,3.90
2018-07-31T06:37:46.229Z,3.72
2018-07-31T06:40:15.583Z,4.10
2018-07-31T06:42:45.308Z,3.20
2018-07-31T06:45:14.709Z,3.33
2018-07-31T06:47:44.082Z,2.50
2018-07-31T06:50:13.593Z,3.55
2018-07-31T06:52:42.990Z,2.72
2018-07-31T06:55:12.471Z,2.45
2018-07-31T06:57:41.824Z,3.02
2018-07-31T07:00:11.736Z,2.65
2018-07-31T07:02:41.330Z,3.22
2018-07-31T07:05:10.743Z,2.98
2018-07-31T07:07:40.144Z,2.67
2018-07-31T07:10:09.583Z,3.00
2018-07-31T07:12:39.041Z,2.85
2018-07-31T07:15:08.477Z,2.27
2018-07-31T07:17:37.868Z,2.50
2018-07-31T07:20:07.485Z,2.72
2018-07-31T07:22:36.887Z,2.42
2018-07-31T07:25:06.409Z,2.60
2018-07-31T07:27:35.967Z,2.70
2018-07-31T07:30:06.109Z,2.75
2018-07-31T07:32:35.521Z,2.83
2018-07-31T07:35:05.033Z,2.77
2018-07-31T07:37:34.385Z,2.50
2018-07-31T07:40:04.097Z,2.40
2018-07-31T07:42:33.461Z,2.20
2018-07-31T07:45:02.860Z,2.67
2018-07-31T07:47:32.543Z,2.70
2018-07-31T07:50:01.943Z,2.80
2018-07-31T07:52:31.530Z,2.60
2018-07-31T07:55:01.007Z,2.52
2018-07-31T07:57:30.390Z,2.25
2018-07-31T07:59:59.846Z,2.52
2018-07-31T08:02:29.242Z,2.60
2018-07-31T08:04:58.713Z,2.77
2018-07-31T08:07:28.080Z,3.05
2018-07-31T08:09:57.496Z,3.02
2018-07-31T08:12:26.918Z,2.45
2018-07-31T08:14:56.293Z,3.12
2018-07-31T08:17:25.709Z,3.42
2018-07-31T08:19:55.104Z,3.17
2018-07-31T08:22:24.486Z,3.30
2018-07-31T08:24:53.910Z,3.10
2018-07-31T08:27:23.306Z,3.27
2018-07-31T08:29:52.811Z,2.87
2018-07-31T08:32:22.241Z,3.40
2018-07-31T08:34:51.577Z,3.52
2018-07-31T08:37:21.009Z,4.30
2018-07-31T08:39:50.368Z,3.90
2018-07-31T08:42:20.095Z,3.40
2018-07-31T08:44:49.490Z,3.42
2018-07-31T08:47:18.868Z,3.20
2018-07-31T08:49:48.261Z,2.92
2018-07-31T08:52:17.656Z,3.42
2018-07-31T08:54:47.072Z,3.33
2018-07-31T08:57:16.445Z,3.77
2018-07-31T08:59:45.949Z,3.27
2018-07-31T09:02:15.419Z,3.55
2018-07-31T09:04:44.887Z,4.40
2018-07-31T09:07:14.269Z,3.00
2018-07-31T09:09:43.728Z,3.58
2018-07-31T09:12:13.234Z,3.37
2018-07-31T09:14:42.631Z,3.83
2018-07-31T09:17:12.143Z,3.80
2018-07-31T09:19:41.613Z,3.60
2018-07-31T09:22:11.021Z,2.83
2018-07-31T09:24:40.558Z,3.17
2018-07-31T09:27:09.874Z,3.40
2018-07-31T09:29:39.263Z,3.17
2018-07-31T09:32:08.792Z,3.25
2018-07-31T09:34:43.270Z,3.80
2018-07-31T09:37:12.706Z,4.47
2018-07-31T09:39:42.065Z,3.90
2018-07-31T09:42:11.533Z,3.17
2018-07-31T09:44:40.929Z,4.17
2018-07-31T09:47:10.345Z,3.92
2018-07-31T09:49:39.757Z,3.50
2018-07-31T09:52:09.332Z,3.45
2018-07-31T09:54:38.765Z,3.20
2018-07-31T09:57:08.176Z,4.10
2018-07-31T09:59:37.609Z,3.12
2018-07-31T10:02:07.300Z,4.17
2018-07-31T10:04:37.919Z,4.37
2018-07-31T10:07:07.361Z,4.10
2018-07-31T10:09:36.725Z,3.75
2018-07-31T10:12:06.158Z,3.70
2018-07-31T10:14:35.628Z,4.10
2018-07-31T10:17:05.041Z,3.67
2018-07-31T10:19:34.433Z,3.75
2018-07-31T10:22:03.897Z,3.60
2018-07-31T10:24:33.353Z,3.90
2018-07-31T10:27:02.968Z,3.47
2018-07-31T10:29:32.402Z,4.67
2018-07-31T10:32:01.718Z,4.47
2018-07-31T10:34:31.134Z,3.92
2018-07-31T10:37:00.549Z,3.87
2018-07-31T10:39:30.110Z,3.45
2018-07-31T10:41:59.541Z,3.80
2018-07-31T10:44:29.011Z,3.72
2018-07-31T10:46:58.359Z,3.80
2018-07-31T10:49:28.704Z,3.80
2018-07-31T10:51:58.723Z,4.58
2018-07-31T10:54:28.736Z,3.80
2018-07-31T10:56:58.448Z,4.03
2018-07-31T10:59:27.880Z,4.15
2018-07-31T11:01:57.669Z,3.65
2018-07-31T11:04:27.257Z,3.72
2018-07-31T11:06:57.183Z,4.33
2018-07-31T11:09:27.035Z,4.75
2018-07-31T11:11:57.347Z,4.20
2018-07-31T11:14:26.750Z,3.72
2018-07-31T11:16:56.198Z,4.05
2018-07-31T11:19:25.751Z,3.90
2018-07-31T11:21:55.210Z,3.67
2018-07-31T11:24:25.553Z,4.78
2018-07-31T11:26:55.372Z,3.42
2018-07-31T11:29:25.356Z,3.83
2018-07-31T11:31:55.085Z,3.58
2018-07-31T11:34:24.878Z,3.55
2018-07-31T11:36:55.072Z,3.47
2018-07-31T11:39:24.851Z,4.35
2018-07-31T11:41:53.981Z,5.03
2018-07-31T11:44:23.441Z,4.30
2018-07-31T11:46:53.225Z,3.95
2018-07-31T11:49:22.688Z,3.70
2018-07-31T11:51:52.378Z,3.20
2018-07-31T11:54:21.887Z,3.12
2018-07-31T11:56:51.458Z,3.30
2018-07-31T11:59:21.206Z,2.98
2018-07-31T12:01:51.073Z,3.60
2018-07-31T12:04:21.244Z,3.75
2018-07-31T12:06:50.996Z,3.40
2018-07-31T12:09:20.474Z,4.10
2018-07-31T12:11:50.402Z,3.60
2018-07-31T12:14:20.579Z,3.62
2018-07-31T12:16:50.533Z,3.55
2018-07-31T12:19:19.981Z,4.15
2018-07-31T12:21:49.451Z,3.33
2018-07-31T12:24:19.167Z,3.55
2018-07-31T12:26:48.606Z,3.02
2018-07-31T12:29:18.015Z,3.30
2018-07-31T12:31:47.481Z,3.12
2018-07-31T12:34:16.908Z,4.05
2018-07-31T12:36:46.404Z,3.52
2018-07-31T12:39:15.838Z,4.50
2018-07-31T12:41:45.657Z,3.58
2018-07-31T12:44:15.175Z,3.80
2018-07-31T12:46:44.618Z,3.70
2018-07-31T12:49:14.080Z,2.80
2018-07-31T12:51:43.510Z,3.37
2018-07-31T12:54:13.113Z,3.17
2018-07-31T12:56:42.860Z,3.45
2018-07-31T12:59:12.266Z,3.33
2018-07-31T13:01:42.308Z,3.17
2018-07-31T13:04:11.772Z,3.33
2018-07-31T13:06:41.519Z,4.05
2018-07-31T13:09:10.890Z,3.55
2018-07-31T13:11:40.288Z,3.45
2018-07-31T13:14:09.709Z,3.12
2018-07-31T13:16:39.180Z,4.58
2018-07-31T13:19:08.917Z,3.70
2018-07-31T13:21:38.649Z,4.03
2018-07-31T13:24:08.412Z,3.83
2018-07-31T13:26:37.900Z,3.12
2018-07-31T13:29:07.852Z,4.35
2018-07-31T13:31:37.330Z,3.90
2018-07-31T13:34:07.198Z,3.33
2018-07-31T13:36:36.592Z,3.05
2018-07-31T13:39:10.521Z,3.58
2018-07-31T13:41:40.091Z,3.62
2018-07-31T13:44:09.711Z,4.47
2018-07-31T13:46:38.977Z,3.83
2018-07-31T13:49:08.753Z,3.95
2018-07-31T13:51:38.172Z,3.40
2018-07-31T13:54:07.662Z,3.65
2018-07-31T13:56:37.551Z,3.62
2018-07-31T13:59:06.995Z,3.10
2018-07-31T14:01:36.761Z,2.90
2018-07-31T14:04:06.196Z,3.10
2018-07-31T14:06:35.597Z,2.95
2018-07-31T14:09:08.216Z,2.77
2018-07-31T14:11:38.024Z,2.67
2018-07-31T14:14:07.567Z,2.67
2018-07-31T14:16:37.059Z,3.08
2018-07-31T14:19:06.735Z,2.70
2018-07-31T14:21:36.630Z,3.00
2018-07-31T14:24:06.135Z,3.30
2018-07-31T14:26:35.594Z,2.62
2018-07-31T14:29:05.124Z,3.00
2018-07-31T14:31:34.836Z,2.55
2018-07-31T14:34:04.333Z,3.08
2018-07-31T14:36:33.781Z,3.40
2018-07-31T14:39:03.454Z,3.47
2018-07-31T14:41:32.865Z,3.40
2018-07-31T14:44:02.591Z,3.20
2018-07-31T14:46:31.992Z,3.30
2018-07-31T14:49:01.410Z,3.12
2018-07-31T14:51:31.079Z,2.85
2018-07-31T14:54:00.521Z,3.37
2018-07-31T14:56:29.976Z,2.77
2018-07-31T14:58:59.404Z,2.92
2018-07-31T15:01:28.811Z,2.50
2018-07-31T15:03:58.666Z,2.77
2018-07-31T15:06:28.071Z,3.30
2018-07-31T15:08:57.505Z,3.08
2018-07-31T15:11:26.985Z,3.00
2018-07-31T15:13:56.417Z,2.80
2018-07-31T15:16:26.212Z,2.80
2018-07-31T15:18:55.609Z,2.95
2018-07-31T15:21:25.081Z,3.12
2018-07-31T15:23:54.561Z,3.08
2018-07-31T15:26:24.039Z,2.92
2018-07-31T15:28:53.473Z,2.87
2018-07-31T15:31:22.928Z,3.10
2018-07-31T15:33:52.368Z,3.65
2018-07-31T15:36:21.785Z,2.50
2018-07-31T15:38:51.560Z,2.20
2018-07-31T15:41:20.987Z,2.47
2018-07-31T15:43:50.773Z,2.50
2018-07-31T15:46:20.871Z,2.37
2018-07-31T15:48:50.299Z,2.55
2018-07-31T15:51:20.484Z,2.15
2018-07-31T15:53:49.964Z,2.60
2018-07-31T15:56:19.409Z,2.40
2018-07-31T15:58:48.865Z,2.52
2018-07-31T16:01:18.305Z,2.40
2018-07-31T16:03:47.747Z,2.22
2018-07-31T16:06:17.168Z,2.20
2018-07-31T16:08:46.698Z,2.30
2018-07-31T16:11:16.093Z,2.42
2018-07-31T16:13:45.848Z,2.83
2018-07-31T16:16:15.454Z,2.75
2018-07-31T16:18:45.109Z,2.80
2018-07-31T16:21:14.898Z,2.27
2018-07-31T16:23:44.341Z,2.70
2018-07-31T16:26:13.773Z,2.95
2018-07-31T16:28:43.195Z,3.00
2018-07-31T16:31:13.283Z,2.87
2018-07-31T16:33:42.698Z,2.52
2018-07-31T16:36:12.146Z,2.90
2018-07-31T16:38:41.617Z,2.62
2018-07-31T16:41:11.066Z,2.92
2018-07-31T16:43:40.604Z,2.52
2018-07-31T16:46:10.366Z,2.58
2018-07-31T16:48:39.685Z,2.50
2018-07-31T16:51:09.126Z,2.50
2018-07-31T16:53:38.558Z,2.75
2018-07-31T16:56:08.008Z,2.47
2018-07-31T16:58:37.760Z,2.58
2018-07-31T17:01:07.183Z,2.87
2018-07-31T17:03:36.985Z,2.90
2018-07-31T17:06:06.764Z,2.37
2018-07-31T17:08:36.392Z,2.52
2018-07-31T17:11:06.019Z,2.60
2018-07-31T17:13:35.481Z,2.77
2018-07-31T17:16:05.300Z,2.95
2018-07-31T17:18:34.981Z,2.47
2018-07-31T17:21:04.474Z,2.45
2018-07-31T17:23:33.910Z,2.65
2018-07-31T17:26:03.785Z,2.75
2018-07-31T17:28:33.235Z,2.98
2018-07-31T17:31:02.912Z,3.02
2018-07-31T17:33:38.632Z,2.87
2018-07-31T17:36:07.807Z,3.17
2018-07-31T17:38:37.381Z,3.22
2018-07-31T17:41:06.921Z,3.05
2018-07-31T17:43:36.686Z,2.77
2018-07-31T17:46:06.225Z,2.92
2018-07-31T17:48:35.664Z,2.98
2018-07-31T17:51:05.093Z,2.67
2018-07-31T17:53:34.558Z,2.75
2018-07-31T17:56:03.976Z,3.10
2018-07-31T17:58:33.456Z,2.92
2018-07-31T18:01:02.894Z,2.95
2018-07-31T18:03:32.556Z,2.52
2018-07-31T18:06:02.367Z,2.05
2018-07-31T18:08:31.778Z,1.98
2018-07-31T18:11:01.256Z,3.00
2018-07-31T18:13:30.703Z,2.50
2018-07-31T18:16:00.184Z,2.20
2018-07-31T18:18:29.649Z,2.55
2018-07-31T18:20:59.135Z,2.20
2018-07-31T18:23:28.617Z,1.80
2018-07-31T18:25:58.089Z,1.85
2018-07-31T18:28:27.556Z,2.00
2018-07-31T18:30:56.926Z,2.15
2018-07-31T18:33:26.367Z,2.52
2018-07-31T18:35:55.898Z,2.17
2018-07-31T18:38:25.285Z,2.22
2018-07-31T18:40:54.761Z,2.42
2018-07-31T18:43:24.196Z,2.50
2018-07-31T18:45:53.597Z,2.67
2018-07-31T18:48:22.991Z,2.58
2018-07-31T18:50:52.418Z,2.35
2018-07-31T18:53:21.876Z,2.52
2018-07-31T18:55:51.370Z,2.95
2018-07-31T18:58:20.823Z,2.60
2018-07-31T19:00:50.451Z,2.70
2018-07-31T19:03:19.882Z,2.58
2018-07-31T19:05:49.279Z,2.98
2018-07-31T19:08:18.651Z,3.27
2018-07-31T19:10:48.084Z,2.58
2018-07-31T19:13:17.503Z,2.87
2018-07-31T19:15:46.880Z,3.00
2018-07-31T19:18:16.304Z,2.62
2018-07-31T19:20:45.768Z,3.00
2018-07-31T19:23:15.160Z,3.22
2018-07-31T19:25:44.653Z,2.62
2018-07-31T19:28:14.203Z,2.75
2018-07-31T19:30:43.712Z,2.90
2018-07-31T19:33:13.137Z,2.58
2018-07-31T19:35:42.586Z,2.85
2018-07-31T19:38:12.116Z,2.80
2018-07-31T19:40:41.570Z,3.37
2018-07-31T19:43:11.073Z,2.98
2018-07-31T19:45:40.607Z,3.37
2018-07-31T19:48:10.034Z,2.98
2018-07-31T19:50:39.513Z,3.17
2018-07-31T19:53:08.892Z,3.20
2018-07-31T19:55:38.324Z,2.67
2018-07-31T19:58:07.929Z,2.95
2018-07-31T20:00:37.332Z,2.98
2018-07-31T20:03:06.793Z,3.12
2018-07-31T20:05:36.188Z,3.33
2018-07-31T20:08:05.657Z,3.05
2018-07-31T20:10:35.082Z,3.05
2018-07-31T20:13:04.521Z,3.17
2018-07-31T20:15:34.079Z,3.15
2018-07-31T20:18:03.447Z,3.02
2018-07-31T20:20:33.025Z,3.20
2018-07-31T20:23:02.468Z,3.72
2018-07-31T20:25:31.825Z,3.15
2018-07-31T20:28:01.843Z,3.10
2018-07-31T20:30:31.293Z,3.30
2018-07-31T20:33:00.724Z,3.27
2018-07-31T20:35:30.220Z,3.37
2018-07-31T20:37:59.639Z,3.45
2018-07-31T20:40:29.060Z,3.25
2018-07-31T20:42:58.540Z,3.37
2018-07-31T20:45:28.064Z,3.60
2018-07-31T20:47:57.507Z,3.20
2018-07-31T20:50:26.998Z,3.50
2018-07-31T20:52:56.379Z,3.70
2018-07-31T20:55:25.865Z,3.35
2018-07-31T20:57:55.308Z,4.15
2018-07-31T21:00:24.720Z,3.58
2018-07-31T21:02:54.126Z,3.72
2018-07-31T21:05:23.564Z,3.62
2018-07-31T21:07:53.306Z,3.45
2018-07-31T21:10:22.732Z,3.50
2018-07-31T21:12:52.122Z,3.65
2018-07-31T21:15:21.556Z,3.30
2018-07-31T21:17:50.986Z,3.80
2018-07-31T21:20:20.378Z,3.50
2018-07-31T21:22:49.755Z,3.83
2018-07-31T21:25:19.170Z,3.20
2018-07-31T21:27:48.635Z,3.52
2018-07-31T21:30:18.010Z,3.58
2018-07-31T21:32:47.425Z,3.75
2018-07-31T21:35:16.810Z,3.77
2018-07-31T21:37:46.189Z,3.85
2018-07-31T21:40:15.553Z,3.47
2018-07-31T21:42:44.961Z,3.08
2018-07-31T21:45:14.409Z,3.65
2018-07-31T21:47:43.965Z,3.35
2018-07-31T21:50:13.276Z,3.77
2018-07-31T21:52:42.689Z,3.35
2018-07-31T21:55:12.143Z,3.60
2018-07-31T21:57:41.525Z,3.72
2018-07-31T22:00:11.881Z,3.25
2018-07-31T22:02:41.326Z,3.47
2018-07-31T22:05:10.753Z,3.95
2018-07-31T22:07:40.117Z,3.30
2018-07-31T22:10:09.575Z,3.35
2018-07-31T22:12:38.955Z,2.80
2018-07-31T22:15:08.374Z,3.37
2018-07-31T22:17:37.908Z,4.22
2018-07-31T22:20:07.356Z,3.52
2018-07-31T22:22:36.733Z,3.33
2018-07-31T22:25:06.177Z,3.30
2018-07-31T22:27:35.555Z,3.47
2018-07-31T22:30:05.231Z,3.45
2018-07-31T22:32:34.572Z,3.92
2018-07-31T22:35:04.001Z,3.40
2018-07-31T22:37:33.416Z,3.45
2018-07-31T22:40:02.793Z,3.47
2018-07-31T22:42:32.228Z,3.33
2018-07-31T22:45:01.665Z,3.75
2018-07-31T22:47:31.097Z,2.98
2018-07-31T22:50:00.457Z,3.50
2018-07-31T22:52:29.893Z,3.75
2018-07-31T22:54:59.266Z,3.50
2018-07-31T22:57:28.698Z,3.27
2018-07-31T22:59:58.080Z,3.58
2018-07-31T23:02:27.560Z,3.50
2018-07-31T23:04:56.971Z,3.45
2018-07-31T23:07:26.348Z,3.77
2018-07-31T23:09:57.144Z,3.35
2018-07-31T23:12:27.197Z,3.25
2018-07-31T23:14:56.632Z,3.47
2018-07-31T23:17:26.308Z,3.60
2018-07-31T23:19:55.822Z,3.67
2018-07-31T23:22:41.499Z,3.52
2018-07-31T23:25:11.946Z,3.72
2018-07-31T23:27:41.360Z,3.60
2018-07-31T23:30:11.062Z,3.80
2018-07-31T23:32:40.978Z,3.72
2018-07-31T23:35:10.289Z,3.50
2018-07-31T23:37:39.764Z,3.67
2018-07-31T23:40:09.191Z,3.62
2018-07-31T23:42:38.546Z,3.65
2018-07-31T23:45:08.102Z,3.58
2018-07-31T23:47:37.488Z,4.12
2018-07-31T23:50:06.933Z,4.10
2018-07-31T23:52:36.008Z,3.67
2018-07-31T23:55:05.559Z,4.08
2018-07-31T23:57:35.010Z,3.98
